createdAt,value
2023-03-22T00:02:17.501Z,101064.64
2023-03-22T00:04:45.816Z,101066.20
2023-03-22T00:07:14.099Z,101068.80
2023-03-22T00:09:42.386Z,101067.73
2023-03-22T00:12:11.159Z,101066.99
2023-03-22T00:14:39.460Z,101067.50
2023-03-22T00:17:07.840Z,101068.39
2023-03-22T00:19:36.029Z,101068.98
2023-03-22T00:22:06.427Z,101069.73
2023-03-22T00:24:34.635Z,101072.73
2023-03-22T00:27:02.916Z,101074.42
2023-03-22T00:29:31.403Z,101073.89
2023-03-22T00:32:00.197Z,101071.28
2023-03-22T00:34:31.732Z,101070.16
2023-03-22T00:36:59.930Z,101067.73
2023-03-22T00:39:28.330Z,101066.90
2023-03-22T00:41:56.595Z,101064.77
2023-03-22T00:44:24.989Z,101067.48
2023-03-22T00:46:54.198Z,101066.71
2023-03-22T00:49:22.579Z,101068.45
2023-03-22T00:51:51.065Z,101067.98
2023-03-22T00:54:19.446Z,101064.91
2023-03-22T00:56:50.073Z,101069.96
2023-03-22T00:59:18.768Z,101066.79
2023-03-22T01:01:47.366Z,101070.60
2023-03-22T01:04:18.361Z,101072.79
2023-03-22T01:06:47.418Z,101070.44
2023-03-22T01:09:15.984Z,101070.35
2023-03-22T01:11:46.311Z,101066.02
2023-03-22T01:14:15.006Z,101070.70
2023-03-22T01:16:43.126Z,101066.77
2023-03-22T01:19:11.572Z,101062.95
2023-03-22T01:21:40.360Z,101062.28
2023-03-22T01:24:08.757Z,101067.75
2023-03-22T01:26:37.848Z,101066.41
2023-03-22T01:29:06.232Z,101066.61
2023-03-22T01:31:34.713Z,101068.75
2023-03-22T01:34:03.698Z,101062.85
2023-03-22T01:36:32.110Z,101066.96
2023-03-22T01:39:00.898Z,101067.30
2023-03-22T01:41:29.484Z,101070.66
2023-03-22T01:44:10.456Z,101066.90
2023-03-22T01:46:42.630Z,101067.17
2023-03-22T01:49:16.472Z,101065.67
2023-03-22T01:51:46.358Z,101064.23
2023-03-22T01:54:29.576Z,101064.66
2023-03-22T01:57:02.564Z,101064.38
2023-03-22T01:59:37.911Z,101065.80
2023-03-22T02:02:24.981Z,101070.14
2023-03-22T02:05:01.703Z,101068.38
2023-03-22T02:07:32.026Z,101066.98
2023-03-22T02:10:00.828Z,101065.29
2023-03-22T02:12:46.189Z,101066.63
2023-03-22T02:15:28.084Z,101066.39
2023-03-22T02:18:16.761Z,101063.61
2023-03-22T02:21:04.467Z,101067.46
2023-03-22T02:23:51.995Z,101064.67
2023-03-22T02:26:20.869Z,101072.95
2023-03-22T02:28:57.340Z,101077.77
2023-03-22T02:31:34.971Z,101080.77
2023-03-22T02:34:09.767Z,101080.20
2023-03-22T02:37:01.999Z,101085.55
2023-03-22T02:39:42.558Z,101081.23
2023-03-22T02:42:29.874Z,101082.52
2023-03-22T02:45:30.599Z,101087.02
2023-03-22T02:48:01.970Z,101090.04
2023-03-22T02:50:50.388Z,101093.03
2023-03-22T02:53:24.810Z,101095.27
2023-03-22T02:56:01.490Z,101099.11
2023-03-22T02:58:32.215Z,101101.79
2023-03-22T03:01:05.997Z,101100.79
2023-03-22T03:03:37.846Z,101097.90
2023-03-22T03:06:11.085Z,101099.36
2023-03-22T03:08:40.391Z,101098.09
2023-03-22T03:11:10.231Z,101103.90
2023-03-22T03:13:38.483Z,101103.20
2023-03-22T03:16:08.165Z,101105.92
2023-03-22T03:18:39.243Z,101104.84
2023-03-22T03:21:30.386Z,101104.71
2023-03-22T03:24:07.637Z,101101.38
2023-03-22T03:26:55.467Z,101106.08
2023-03-22T03:29:23.543Z,101110.49
2023-03-22T03:32:04.408Z,101108.33
2023-03-22T03:34:39.445Z,101111.37
2023-03-22T03:37:10.084Z,101115.59
2023-03-22T03:39:44.960Z,101113.89
2023-03-22T03:42:16.481Z,101115.89
2023-03-22T03:44:45.786Z,101118.96
2023-03-22T03:47:14.699Z,101121.67
2023-03-22T03:49:43.072Z,101124.23
2023-03-22T03:52:11.134Z,101123.04
2023-03-22T03:54:39.515Z,101128.23
2023-03-22T03:57:09.663Z,101132.60
2023-03-22T03:59:38.957Z,101133.30
2023-03-22T04:02:13.752Z,101133.53
2023-03-22T04:04:42.714Z,101130.92
2023-03-22T04:07:11.164Z,101135.86
2023-03-22T04:09:41.344Z,101133.09
2023-03-22T04:12:22.659Z,101134.39
2023-03-22T04:15:11.005Z,101136.39
2023-03-22T04:17:40.418Z,101136.08
2023-03-22T04:20:11.358Z,101138.44
2023-03-22T04:22:40.566Z,101138.34
2023-03-22T04:25:13.548Z,101142.94
2023-03-22T04:27:51.446Z,101148.77
2023-03-22T04:30:21.777Z,101151.30
2023-03-22T04:33:07.327Z,101157.36
2023-03-22T04:35:58.523Z,101162.48
2023-03-22T04:38:34.308Z,101165.88
2023-03-22T04:41:03.104Z,101166.38
2023-03-22T04:43:39.579Z,101172.27
2023-03-22T04:46:13.395Z,101171.35
2023-03-22T04:48:51.690Z,101170.29
2023-03-22T04:51:20.079Z,101171.84
2023-03-22T04:54:00.637Z,101174.34
2023-03-22T04:56:29.123Z,101173.04
2023-03-22T04:58:57.464Z,101172.46
2023-03-22T05:01:26.336Z,101171.98
2023-03-22T05:04:00.581Z,101171.45
2023-03-22T05:06:29.002Z,101169.68
2023-03-22T05:09:02.797Z,101173.39
2023-03-22T05:11:32.424Z,101180.27
2023-03-22T05:14:21.545Z,101183.27
2023-03-22T05:16:50.074Z,101187.94
2023-03-22T05:19:22.561Z,101193.25
2023-03-22T05:21:58.681Z,101198.27
2023-03-22T05:24:41.731Z,101203.05
2023-03-22T05:27:14.626Z,101204.86
2023-03-22T05:29:45.243Z,101208.02
2023-03-22T05:32:25.808Z,101210.10
2023-03-22T05:34:56.650Z,101212.92
2023-03-22T05:37:34.656Z,101213.77
2023-03-22T05:40:05.983Z,101215.79
2023-03-22T05:42:37.786Z,101218.06
2023-03-22T05:45:15.162Z,101215.02
2023-03-22T05:47:44.806Z,101216.31
2023-03-22T05:50:17.156Z,101218.66
2023-03-22T05:52:45.853Z,101221.42
2023-03-22T05:55:30.524Z,101219.05
2023-03-22T05:58:01.749Z,101222.57
2023-03-22T06:00:32.244Z,101227.67
2023-03-22T06:03:21.025Z,101221.21
2023-03-22T06:06:10.854Z,101226.95
2023-03-22T06:08:46.766Z,101225.63
2023-03-22T06:11:15.653Z,101228.03
2023-03-22T06:13:43.940Z,101231.70
2023-03-22T06:16:12.859Z,101230.40
2023-03-22T06:18:43.012Z,101230.39
2023-03-22T06:21:13.492Z,101232.66
2023-03-22T06:23:43.824Z,101231.05
2023-03-22T06:26:12.732Z,101235.66
2023-03-22T06:28:41.515Z,101237.73
2023-03-22T06:31:10.558Z,101241.10
2023-03-22T06:34:05.904Z,101245.58
2023-03-22T06:36:39.411Z,101247.53
2023-03-22T06:39:12.951Z,101253.79
2023-03-22T06:41:44.665Z,101251.86
2023-03-22T06:44:13.487Z,101253.77
2023-03-22T06:47:00.059Z,101252.75
2023-03-22T06:49:48.600Z,101256.05
2023-03-22T06:52:21.892Z,101261.91
2023-03-22T06:54:50.617Z,101264.01
2023-03-22T06:57:18.773Z,101267.35
2023-03-22T06:59:47.147Z,101269.54
2023-03-22T07:02:15.739Z,101265.70
2023-03-22T07:04:57.339Z,101258.65
2023-03-22T07:07:26.428Z,101259.96
2023-03-22T07:09:54.812Z,101262.60
2023-03-22T07:12:23.253Z,101262.33
2023-03-22T07:14:52.296Z,101262.52
2023-03-22T07:17:41.147Z,101265.85
2023-03-22T07:20:09.839Z,101268.85
2023-03-22T07:22:38.432Z,101266.75
2023-03-22T07:25:07.023Z,101266.29
2023-03-22T07:27:35.605Z,101264.80
2023-03-22T07:30:04.913Z,101265.94
2023-03-22T07:32:35.994Z,101264.73
2023-03-22T07:35:07.712Z,101265.80
2023-03-22T07:37:36.113Z,101261.30
2023-03-22T07:40:07.120Z,101262.63
2023-03-22T07:42:35.799Z,101258.77
2023-03-22T07:45:22.961Z,101258.95
2023-03-22T07:47:51.235Z,101256.29
2023-03-22T07:50:19.826Z,101258.67
2023-03-22T07:52:51.704Z,101257.85
2023-03-22T07:55:20.079Z,101257.99
2023-03-22T07:57:48.263Z,101263.20
2023-03-22T08:00:17.334Z,101256.42
2023-03-22T08:02:48.707Z,101254.80
2023-03-22T08:05:39.894Z,101255.89
2023-03-22T08:08:08.305Z,101248.42
2023-03-22T08:10:36.765Z,101253.59
2023-03-22T08:13:05.797Z,101248.27
2023-03-22T08:15:34.276Z,101248.78
2023-03-22T08:18:02.549Z,101245.89
2023-03-22T08:20:38.574Z,101240.34
2023-03-22T08:23:16.129Z,101231.70
2023-03-22T08:25:59.567Z,101231.21
2023-03-22T08:28:28.318Z,101233.05
2023-03-22T08:30:56.606Z,101227.71
2023-03-22T08:33:26.729Z,101230.92
2023-03-22T08:36:07.201Z,101231.31
2023-03-22T08:38:38.447Z,101228.77
2023-03-22T08:41:07.933Z,101229.71
2023-03-22T08:43:36.245Z,101231.16
2023-03-22T08:46:05.524Z,101227.43
2023-03-22T08:48:35.967Z,101230.41
2023-03-22T08:51:09.359Z,101229.54
2023-03-22T08:53:52.194Z,101228.55
2023-03-22T08:56:59.454Z,101226.48
2023-03-22T08:59:45.239Z,101225.42
2023-03-22T09:02:36.442Z,101228.23
2023-03-22T09:05:05.271Z,101226.77
2023-03-22T09:07:34.016Z,101226.11
2023-03-22T09:10:09.421Z,101225.63
2023-03-22T09:12:39.280Z,101219.10
2023-03-22T09:15:11.407Z,101219.31
2023-03-22T09:17:41.881Z,101212.59
2023-03-22T09:20:13.111Z,101213.66
2023-03-22T09:22:44.190Z,101206.25
2023-03-22T09:25:14.715Z,101208.23
2023-03-22T09:27:44.733Z,101211.67
2023-03-22T09:30:13.317Z,101208.30
2023-03-22T09:32:41.815Z,101205.17
2023-03-22T09:35:11.619Z,101205.07
2023-03-22T09:37:46.351Z,101200.67
2023-03-22T09:40:15.857Z,101199.36
2023-03-22T09:42:46.403Z,101194.80
2023-03-22T09:45:38.491Z,101196.77
2023-03-22T09:48:27.273Z,101193.94
2023-03-22T09:50:55.780Z,101190.91
2023-03-22T09:53:25.160Z,101190.42
2023-03-22T09:56:18.107Z,101186.08
2023-03-22T09:59:08.308Z,101187.25
2023-03-22T10:01:55.616Z,101183.16
2023-03-22T10:04:26.659Z,101179.72
2023-03-22T10:07:13.451Z,101179.38
2023-03-22T10:09:47.571Z,101179.17
2023-03-22T10:12:27.932Z,101171.85
2023-03-22T10:15:25.378Z,101169.23
2023-03-22T10:17:55.395Z,101170.09
2023-03-22T10:20:44.656Z,101166.97
2023-03-22T10:23:16.117Z,101164.94
2023-03-22T10:25:44.809Z,101164.69
2023-03-22T10:28:16.476Z,101162.21
2023-03-22T10:30:47.269Z,101161.25
2023-03-22T10:33:19.672Z,101160.92
2023-03-22T10:35:48.903Z,101161.17
2023-03-22T10:38:23.816Z,101157.03
2023-03-22T10:40:53.936Z,101156.59
2023-03-22T10:43:41.044Z,101158.16
2023-03-22T10:46:14.909Z,101151.30
2023-03-22T10:48:46.204Z,101152.84
2023-03-22T10:51:32.708Z,101146.77
2023-03-22T10:54:02.733Z,101143.15
2023-03-22T10:56:31.419Z,101135.02
2023-03-22T10:58:59.700Z,101130.91
2023-03-22T11:01:34.133Z,101128.86
2023-03-22T11:04:08.761Z,101130.96
2023-03-22T11:06:41.491Z,101128.16
2023-03-22T11:09:27.427Z,101122.95
2023-03-22T11:11:56.834Z,101124.53
2023-03-22T11:14:28.283Z,101120.03
2023-03-22T11:16:59.635Z,101118.96
2023-03-22T11:19:29.476Z,101117.57
2023-03-22T11:21:58.649Z,101112.59
2023-03-22T11:24:27.650Z,101111.77
2023-03-22T11:27:03.809Z,101113.18
2023-03-22T11:29:43.448Z,101109.38
2023-03-22T11:32:29.159Z,101111.04
2023-03-22T11:35:01.728Z,101107.30
2023-03-22T11:37:29.991Z,101104.10
2023-03-22T11:40:00.173Z,101101.85
2023-03-22T11:42:28.830Z,101100.57
2023-03-22T11:44:57.501Z,101096.14
2023-03-22T11:47:29.125Z,101098.15
2023-03-22T11:49:57.541Z,101096.35
2023-03-22T11:52:27.769Z,101092.38
2023-03-22T11:54:59.631Z,101091.11
2023-03-22T11:57:30.063Z,101090.65
2023-03-22T12:00:02.140Z,101089.02
2023-03-22T12:02:36.234Z,101088.69
2023-03-22T12:05:09.481Z,101084.33
2023-03-22T12:07:38.641Z,101082.85
2023-03-22T12:10:19.006Z,101082.73
2023-03-22T12:12:57.726Z,101080.95
2023-03-22T12:15:33.575Z,101077.58
2023-03-22T12:18:01.813Z,101075.64
2023-03-22T12:20:42.019Z,101069.76
2023-03-22T12:23:15.931Z,101069.42
2023-03-22T12:25:50.960Z,101071.68
2023-03-22T12:28:22.016Z,101071.23
2023-03-22T12:30:53.099Z,101069.04
2023-03-22T12:33:29.740Z,101064.98
2023-03-22T12:36:06.010Z,101057.85
2023-03-22T12:38:59.032Z,101058.87
2023-03-22T12:41:36.116Z,101061.70
2023-03-22T12:44:10.944Z,101061.09
2023-03-22T12:46:47.353Z,101057.00
2023-03-22T12:49:34.740Z,101051.33
2023-03-22T12:52:15.916Z,101050.34
2023-03-22T12:54:44.908Z,101049.45
2023-03-22T12:57:15.131Z,101049.71
2023-03-22T12:59:45.562Z,101041.38
2023-03-22T13:02:18.755Z,101038.27
2023-03-22T13:04:51.852Z,101036.35
2023-03-22T13:07:32.004Z,101037.42
2023-03-22T13:10:01.304Z,101034.94
2023-03-22T13:12:32.023Z,101035.42
2023-03-22T13:15:23.851Z,101035.30
2023-03-22T13:17:59.219Z,101032.38
2023-03-22T13:20:29.247Z,101035.54
2023-03-22T13:22:57.606Z,101032.36
2023-03-22T13:25:36.228Z,101025.75
2023-03-22T13:28:20.777Z,101028.59
2023-03-22T13:30:50.808Z,101030.23
2023-03-22T13:33:26.959Z,101028.95
2023-03-22T13:35:57.953Z,101027.09
2023-03-22T13:38:26.389Z,101025.81
2023-03-22T13:40:59.891Z,101027.17
2023-03-22T13:43:30.143Z,101022.64
2023-03-22T13:46:13.933Z,101020.24
2023-03-22T13:48:48.815Z,101017.05
2023-03-22T13:51:17.680Z,101016.70
2023-03-22T13:54:02.134Z,101019.01
2023-03-22T13:56:42.503Z,101017.45
2023-03-22T13:59:11.292Z,101011.52
2023-03-22T14:01:47.921Z,101016.70
2023-03-22T14:04:36.605Z,101014.09
2023-03-22T14:07:06.327Z,101019.67
2023-03-22T14:09:48.022Z,101020.99
2023-03-22T14:12:35.137Z,101022.45
2023-03-22T14:15:05.329Z,101022.20
2023-03-22T14:17:33.566Z,101020.70
2023-03-22T14:20:05.179Z,101023.48
